Portada
METAR-TAF:

METAR-TAF

Aeroports :

Cochabamba, Bolívia

latitud: 17-25S, longitud: 066-11W, altitud: 2548 m

Observació

L'informe es va fer fa 1 hora i 5 minuts, a les 14:00 UTC
Vent calma
Temperatura 10°C
Humitat 25%
Pressió 1030 hPa
Visibilitat 10 km o més

METAR: SLCB 091400Z 00000KT 9999 NSC 10/M09 Q1030

Hora: 11:05 (15:05 UTC)

Pronòstic

L'informe es va fer fa 5 hores i 5 minuts, a les 10:00 UTC
Pronòstic vàlid del 09 a les 12 UTC al 10 a les 12 UTC
Vent kt del Nord
Visibilitat 10 km o més
Evolucionant progressivament
l' 09 a les 15 UTC al 09 a les 17 UTC
Vent 10 kt del Oest/Sud-Oest
Evolucionant progressivament
l' 10 a les 00 UTC al 10 a les 02 UTC
Vent kt del Nord

TAF: SLCB 091000Z 0912/1012 00000KT 9999 NSC TX25/0919Z TN00/1011Z BECMG 0915/0917 24010KT BECMG 1000/1002 00000KT

Observacions i pronòstics meteorològics de més de 4000 aeroports (METAR i TAF).

Les estacions disponibles són els punts grocs i vermells al mapa.

Posi el ratolí al punt desitjat per veure el nom de l'estació.

Feu clic per veure les observacions i els pronòstics meteorològics.

Per canviar el mapa: feu clic els botons verds amb una creu de color negre per apropar; al botó verd amb un guió per allunyar la imatge; o en les fletxes verdes per a mapes adjacents.


METAR-TAF: